createdAt,value
2022-10-27T00:01:06.305Z,15.43
2022-10-27T00:03:52.262Z,16.12
2022-10-27T00:06:38.089Z,16.43
2022-10-27T00:09:24.004Z,16.12
2022-10-27T00:12:09.953Z,15.17
2022-10-27T00:14:55.885Z,15.04
2022-10-27T00:17:41.799Z,15.03
2022-10-27T00:20:27.752Z,14.90
2022-10-27T00:23:13.522Z,14.65
2022-10-27T00:25:59.353Z,14.04
2022-10-27T00:28:45.186Z,13.93
2022-10-27T00:31:31.185Z,14.15
2022-10-27T00:34:17.036Z,14.68
2022-10-27T00:37:02.762Z,15.12
2022-10-27T00:39:48.623Z,15.54
2022-10-27T00:42:34.659Z,15.45
2022-10-27T00:45:20.446Z,15.08
2022-10-27T00:48:06.396Z,13.97
2022-10-27T00:50:52.253Z,13.88
2022-10-27T00:53:38.104Z,14.04
2022-10-27T00:56:23.922Z,14.17
2022-10-27T00:59:09.734Z,14.09
2022-10-27T01:01:55.668Z,14.25
2022-10-27T01:04:41.854Z,13.85
2022-10-27T01:07:27.596Z,13.62
2022-10-27T01:10:13.634Z,13.40
2022-10-27T01:12:59.453Z,13.10
2022-10-27T01:15:45.347Z,12.92
2022-10-27T01:18:31.340Z,12.88
2022-10-27T01:21:17.169Z,12.86
2022-10-27T01:24:02.913Z,12.49
2022-10-27T01:26:48.835Z,12.12
2022-10-27T01:29:34.731Z,12.25
2022-10-27T01:32:20.820Z,12.38
2022-10-27T01:35:06.604Z,13.21
2022-10-27T01:37:52.472Z,12.12
2022-10-27T01:40:38.390Z,11.50
2022-10-27T01:43:24.225Z,11.36
2022-10-27T01:46:09.961Z,11.98
2022-10-27T01:48:55.692Z,12.48
2022-10-27T01:51:41.465Z,13.21
2022-10-27T01:54:29.388Z,13.82
2022-10-27T01:57:15.075Z,14.40
2022-10-27T02:00:01.105Z,14.73
2022-10-27T02:02:46.942Z,15.14
2022-10-27T02:05:32.672Z,15.39
2022-10-27T02:08:18.614Z,15.78
2022-10-27T02:11:04.422Z,15.31
2022-10-27T02:13:50.387Z,14.62
2022-10-27T02:16:36.389Z,15.08
2022-10-27T02:19:22.278Z,15.22
2022-10-27T02:22:08.221Z,13.35
2022-10-27T02:24:54.073Z,12.81
2022-10-27T02:27:39.894Z,12.70
2022-10-27T02:30:25.720Z,13.38
2022-10-27T02:33:11.349Z,13.71
2022-10-27T02:35:57.189Z,14.59
2022-10-27T02:38:43.209Z,15.04
2022-10-27T02:41:29.208Z,15.43
2022-10-27T02:44:15.103Z,15.72
2022-10-27T02:47:04.249Z,15.57
2022-10-27T02:49:51.977Z,13.63
2022-10-27T02:52:37.778Z,12.61
2022-10-27T02:55:23.720Z,12.70
2022-10-27T02:58:09.569Z,12.87
2022-10-27T03:00:55.773Z,13.88
2022-10-27T03:03:41.775Z,14.57
2022-10-27T03:06:27.578Z,15.21
2022-10-27T03:09:13.458Z,14.36
2022-10-27T03:11:59.433Z,12.55
2022-10-27T03:14:45.292Z,11.75
2022-10-27T03:17:31.310Z,11.93
2022-10-27T03:20:17.050Z,12.54
2022-10-27T03:23:02.881Z,12.95
2022-10-27T03:25:48.907Z,12.63
2022-10-27T03:28:35.164Z,12.16
2022-10-27T03:31:20.960Z,12.31
2022-10-27T03:34:06.753Z,12.55
2022-10-27T03:36:52.745Z,12.55
2022-10-27T03:39:38.570Z,11.76
2022-10-27T03:42:24.351Z,11.52
2022-10-27T03:45:10.316Z,11.76
2022-10-27T03:47:56.219Z,12.18
2022-10-27T03:50:41.981Z,12.16
2022-10-27T03:53:27.944Z,11.42
2022-10-27T03:56:13.725Z,11.35
2022-10-27T03:58:59.482Z,11.22
2022-10-27T04:01:47.496Z,11.48
2022-10-27T04:04:33.661Z,11.96
2022-10-27T04:07:19.609Z,11.70
2022-10-27T04:10:05.403Z,11.56
2022-10-27T04:13:01.412Z,11.69
2022-10-27T04:16:03.803Z,11.72
2022-10-27T04:18:49.840Z,11.66
2022-10-27T04:21:35.645Z,11.39
2022-10-27T04:24:21.534Z,11.22
2022-10-27T04:27:07.391Z,11.11
2022-10-27T04:29:53.329Z,11.07
2022-10-27T04:32:39.001Z,11.23
2022-10-27T04:35:24.881Z,11.69
2022-10-27T04:38:10.668Z,12.46
2022-10-27T04:40:56.671Z,12.02
2022-10-27T04:43:42.512Z,11.20
2022-10-27T04:46:28.436Z,11.18
2022-10-27T04:49:14.271Z,11.33
2022-10-27T04:52:00.134Z,11.54
2022-10-27T04:54:46.292Z,11.57
2022-10-27T04:57:32.165Z,11.14
2022-10-27T05:00:18.022Z,10.68
2022-10-27T05:03:03.949Z,10.67
2022-10-27T05:05:49.724Z,10.49
2022-10-27T05:08:35.545Z,10.60
2022-10-27T05:11:21.377Z,10.65
2022-10-27T05:14:07.218Z,10.90
2022-10-27T05:16:53.086Z,11.54
2022-10-27T05:19:39.037Z,11.60
2022-10-27T05:22:24.785Z,10.76
2022-10-27T05:25:10.573Z,11.12
2022-10-27T05:27:56.287Z,11.49
2022-10-27T05:30:42.164Z,11.88
2022-10-27T05:33:28.039Z,11.60
2022-10-27T05:36:13.835Z,11.48
2022-10-27T05:38:59.617Z,11.34
2022-10-27T05:41:45.415Z,11.07
2022-10-27T05:44:31.149Z,10.92
2022-10-27T05:47:17.166Z,11.42
2022-10-27T05:50:02.963Z,11.73
2022-10-27T05:52:49.035Z,12.11
2022-10-27T05:55:35.353Z,11.33
2022-10-27T05:58:21.246Z,10.89
2022-10-27T06:01:07.206Z,10.76
2022-10-27T06:03:53.177Z,10.85
2022-10-27T06:06:39.085Z,11.08
2022-10-27T06:09:24.891Z,12.06
2022-10-27T06:12:10.568Z,12.78
2022-10-27T06:14:56.571Z,12.76
2022-10-27T06:17:42.429Z,13.49
2022-10-27T06:20:28.337Z,13.97
2022-10-27T06:23:14.604Z,12.99
2022-10-27T06:26:01.505Z,13.42
2022-10-27T06:28:47.560Z,13.53
2022-10-27T06:31:33.398Z,13.96
2022-10-27T06:34:19.352Z,14.49
2022-10-27T06:37:05.248Z,14.37
2022-10-27T06:39:51.201Z,12.59
2022-10-27T06:42:48.730Z,12.08
2022-10-27T06:45:41.684Z,12.30
2022-10-27T06:48:27.654Z,12.26
2022-10-27T06:51:13.366Z,12.24
2022-10-27T06:53:59.243Z,12.47
2022-10-27T06:56:45.035Z,12.34
2022-10-27T06:59:30.989Z,12.81
2022-10-27T07:02:17.048Z,12.23
2022-10-27T07:05:03.088Z,12.24
2022-10-27T07:07:49.252Z,12.39
2022-10-27T07:10:35.589Z,12.69
2022-10-27T07:13:21.315Z,13.10
2022-10-27T07:16:07.172Z,13.38
2022-10-27T07:18:53.033Z,13.71
2022-10-27T07:21:38.752Z,13.73
2022-10-27T07:24:24.777Z,14.32
2022-10-27T07:27:11.192Z,14.90
2022-10-27T07:29:57.414Z,14.39
2022-10-27T07:32:43.396Z,14.29
2022-10-27T07:35:29.298Z,13.99
2022-10-27T07:38:15.239Z,14.26
2022-10-27T07:41:01.237Z,14.91
2022-10-27T07:43:47.033Z,15.45
2022-10-27T07:46:32.967Z,15.90
2022-10-27T07:49:18.785Z,16.29
2022-10-27T07:52:04.697Z,16.77
2022-10-27T07:54:50.627Z,16.96
2022-10-27T07:57:36.540Z,17.29
2022-10-27T08:00:22.495Z,17.47
2022-10-27T08:03:08.211Z,17.58
2022-10-27T08:05:54.206Z,17.73
2022-10-27T08:08:40.151Z,17.83
2022-10-27T08:11:25.961Z,18.00
2022-10-27T08:14:11.913Z,18.08
2022-10-27T08:17:01.303Z,18.13
2022-10-27T08:19:50.097Z,18.35
2022-10-27T08:22:35.925Z,18.52
2022-10-27T08:25:21.732Z,18.51
2022-10-27T08:28:07.573Z,17.71
2022-10-27T08:30:53.750Z,17.54
2022-10-27T08:33:39.566Z,17.54
2022-10-27T08:36:25.390Z,16.83
2022-10-27T08:39:11.265Z,16.20
2022-10-27T08:41:57.079Z,16.25
2022-10-27T08:44:42.966Z,16.41
2022-10-27T08:47:28.759Z,15.86
2022-10-27T08:50:14.696Z,15.65
2022-10-27T08:53:03.927Z,15.27
2022-10-27T08:55:51.331Z,16.09
2022-10-27T08:58:37.319Z,16.27
2022-10-27T09:01:23.346Z,16.27
2022-10-27T09:04:09.549Z,16.71
2022-10-27T09:06:55.416Z,17.17
2022-10-27T09:09:41.419Z,16.85
2022-10-27T09:12:27.316Z,16.65
2022-10-27T09:15:13.242Z,16.61
2022-10-27T09:17:59.216Z,16.64
2022-10-27T09:20:45.284Z,16.11
2022-10-27T09:23:31.214Z,16.26
2022-10-27T09:26:17.187Z,15.94
2022-10-27T09:29:02.986Z,16.33
2022-10-27T09:31:48.917Z,17.16
2022-10-27T09:34:34.990Z,17.68
2022-10-27T09:37:20.855Z,17.15
2022-10-27T09:40:06.938Z,17.29
2022-10-27T09:42:53.157Z,17.44
2022-10-27T09:45:39.624Z,17.60
2022-10-27T09:48:25.433Z,18.46
2022-10-27T09:51:11.358Z,17.70
2022-10-27T09:53:57.120Z,18.03
2022-10-27T09:56:43.050Z,18.21
2022-10-27T09:59:28.988Z,18.41
2022-10-27T10:02:14.872Z,18.77
2022-10-27T10:05:00.757Z,18.22
2022-10-27T10:07:46.584Z,18.73
2022-10-27T10:10:32.488Z,18.13
2022-10-27T10:13:18.247Z,17.70
2022-10-27T10:16:04.004Z,17.25
2022-10-27T10:18:49.964Z,17.89
2022-10-27T10:21:35.892Z,17.81
2022-10-27T10:24:23.800Z,17.34
2022-10-27T10:27:09.671Z,17.60
2022-10-27T10:29:55.465Z,17.51
2022-10-27T10:32:41.373Z,17.37
2022-10-27T10:35:27.169Z,17.18
2022-10-27T10:38:13.155Z,16.94
2022-10-27T10:40:59.086Z,16.80
2022-10-27T10:43:45.062Z,16.85
2022-10-27T10:46:30.992Z,17.36
2022-10-27T10:49:16.872Z,17.37
2022-10-27T10:52:02.886Z,17.27
2022-10-27T10:54:48.881Z,18.41
2022-10-27T10:57:34.682Z,18.81
2022-10-27T11:00:20.689Z,18.76
2022-10-27T11:03:06.613Z,18.36
2022-10-27T11:05:52.421Z,18.92
2022-10-27T11:08:42.039Z,19.11
2022-10-27T11:11:28.724Z,19.17
2022-10-27T11:14:14.569Z,19.65
2022-10-27T11:17:00.591Z,20.00
2022-10-27T11:19:46.550Z,20.44
2022-10-27T11:22:32.467Z,20.97
2022-10-27T11:25:18.532Z,20.84
2022-10-27T11:28:04.309Z,21.21
2022-10-27T11:30:50.241Z,20.60
2022-10-27T11:33:36.208Z,20.28
2022-10-27T11:36:24.073Z,20.47
2022-10-27T11:39:10.116Z,21.30
2022-10-27T11:41:56.025Z,21.00
2022-10-27T11:44:42.105Z,21.79
2022-10-27T11:47:28.055Z,21.35
2022-10-27T11:50:13.962Z,21.52
2022-10-27T11:52:59.939Z,21.65
2022-10-27T11:55:45.789Z,21.58
2022-10-27T11:58:31.472Z,20.57
2022-10-27T12:01:17.447Z,20.64
2022-10-27T12:04:03.697Z,20.31
2022-10-27T12:06:49.407Z,19.78
2022-10-27T12:09:35.248Z,19.92
2022-10-27T12:12:21.080Z,20.01
2022-10-27T12:15:06.829Z,20.48
2022-10-27T12:17:53.180Z,21.11
2022-10-27T12:20:39.167Z,21.64
2022-10-27T12:23:25.090Z,20.93
2022-10-27T12:26:11.156Z,21.35
2022-10-27T12:28:57.063Z,20.98
2022-10-27T12:31:43.144Z,21.67
2022-10-27T12:34:28.990Z,21.67
2022-10-27T12:37:16.393Z,21.72
2022-10-27T12:40:04.277Z,21.72
2022-10-27T12:42:50.138Z,21.91
2022-10-27T12:45:35.910Z,21.85
2022-10-27T12:48:21.843Z,21.56
2022-10-27T12:51:07.594Z,21.94
2022-10-27T12:53:53.584Z,21.78
2022-10-27T12:56:39.545Z,21.52
2022-10-27T12:59:25.355Z,21.67
2022-10-27T13:02:11.298Z,22.00
2022-10-27T13:04:57.299Z,22.16
2022-10-27T13:07:43.107Z,22.22
2022-10-27T13:10:31.259Z,22.23
2022-10-27T13:13:18.426Z,22.41
2022-10-27T13:16:04.304Z,22.73
2022-10-27T13:18:50.101Z,22.61
2022-10-27T13:21:35.914Z,22.86
2022-10-27T13:24:21.783Z,22.72
2022-10-27T13:27:07.650Z,22.61
2022-10-27T13:29:53.565Z,22.65
2022-10-27T13:32:39.425Z,22.66
2022-10-27T13:35:25.281Z,22.81
2022-10-27T13:38:11.101Z,23.31
2022-10-27T13:40:57.138Z,23.36
2022-10-27T13:43:42.955Z,23.19
2022-10-27T13:46:28.826Z,23.00
2022-10-27T13:49:14.829Z,22.94
2022-10-27T13:52:06.892Z,22.78
2022-10-27T13:54:52.992Z,22.95
2022-10-27T13:57:38.867Z,22.61
2022-10-27T14:00:24.708Z,22.56
2022-10-27T14:03:10.738Z,22.57
2022-10-27T14:05:56.817Z,22.58
2022-10-27T14:08:42.551Z,21.95
2022-10-27T14:11:28.485Z,22.35
2022-10-27T14:14:14.321Z,22.45
2022-10-27T14:17:00.181Z,22.42
2022-10-27T14:19:46.171Z,22.65
2022-10-27T14:22:32.029Z,22.48
2022-10-27T14:25:17.959Z,22.61
2022-10-27T14:28:03.983Z,22.52
2022-10-27T14:30:49.713Z,22.74
2022-10-27T14:33:35.704Z,22.99
2022-10-27T14:39:12.127Z,22.51
2022-10-27T14:41:58.000Z,22.18
2022-10-27T14:44:43.859Z,21.65
2022-10-27T14:47:29.698Z,21.17
2022-10-27T14:50:17.591Z,21.52
2022-10-27T14:53:03.598Z,21.53
2022-10-27T14:55:49.380Z,21.05
2022-10-27T14:58:35.332Z,20.72
2022-10-27T15:01:27.456Z,20.78
2022-10-27T15:04:16.056Z,21.01
2022-10-27T15:07:01.860Z,21.41
2022-10-27T15:09:51.772Z,21.59
2022-10-27T15:12:39.044Z,21.96
2022-10-27T15:15:24.779Z,21.93
2022-10-27T15:18:10.711Z,21.82
2022-10-27T15:20:56.552Z,21.54
2022-10-27T15:23:42.317Z,21.19
2022-10-27T15:26:28.093Z,20.86
2022-10-27T15:29:14.185Z,20.84
2022-10-27T15:32:00.058Z,20.93
2022-10-27T15:34:46.063Z,20.59
2022-10-27T15:37:31.909Z,20.70
2022-10-27T15:40:18.072Z,20.63
2022-10-27T15:43:04.033Z,20.72
2022-10-27T15:45:49.959Z,20.51
2022-10-27T15:48:35.941Z,20.64
2022-10-27T15:51:21.973Z,20.66
2022-10-27T15:54:07.703Z,20.34
2022-10-27T15:56:53.885Z,20.29
2022-10-27T15:59:39.693Z,20.25
2022-10-27T16:02:25.554Z,20.28
2022-10-27T16:05:11.440Z,20.49
2022-10-27T16:07:57.401Z,20.72
2022-10-27T16:10:43.403Z,21.13
2022-10-27T16:13:29.409Z,21.42
2022-10-27T16:16:15.281Z,21.78
2022-10-27T16:19:01.326Z,21.52
2022-10-27T16:21:47.146Z,21.63
2022-10-27T16:24:33.078Z,21.52
2022-10-27T16:27:18.985Z,21.61
2022-10-27T16:30:04.882Z,21.56
2022-10-27T16:32:51.164Z,21.60
2022-10-27T16:35:37.297Z,21.63
2022-10-27T16:38:23.107Z,21.60
2022-10-27T16:41:09.174Z,21.46
2022-10-27T16:43:55.051Z,21.48
2022-10-27T16:46:40.922Z,21.60
2022-10-27T16:49:26.930Z,21.76
2022-10-27T16:52:12.769Z,21.86
2022-10-27T16:54:58.618Z,21.92
2022-10-27T16:57:47.241Z,21.82
2022-10-27T17:00:35.675Z,21.61
2022-10-27T17:03:21.618Z,21.33
2022-10-27T17:06:07.598Z,21.21
2022-10-27T17:08:53.368Z,21.38
2022-10-27T17:11:39.281Z,21.40
2022-10-27T17:14:25.169Z,21.49
2022-10-27T17:17:11.032Z,21.44
2022-10-27T17:19:56.943Z,21.31
2022-10-27T17:22:42.883Z,20.95
2022-10-27T17:25:31.392Z,20.93
2022-10-27T17:28:17.858Z,21.05
2022-10-27T17:31:03.756Z,20.92
2022-10-27T17:33:49.808Z,20.84
2022-10-27T17:36:35.631Z,21.01
2022-10-27T17:39:21.371Z,20.88
2022-10-27T17:42:07.279Z,21.03
2022-10-27T17:44:53.122Z,20.95
2022-10-27T17:47:39.042Z,21.09
2022-10-27T17:50:24.890Z,21.30
2022-10-27T17:53:10.725Z,21.44
2022-10-27T17:55:56.709Z,21.24
2022-10-27T17:58:42.531Z,21.23
2022-10-27T18:01:28.663Z,21.34
2022-10-27T18:04:14.805Z,21.36
2022-10-27T18:07:00.601Z,21.31
2022-10-27T18:09:46.540Z,20.00
2022-10-27T18:12:32.437Z,19.76
2022-10-27T18:15:35.046Z,20.26
2022-10-27T18:18:22.255Z,20.61
2022-10-27T18:21:08.333Z,20.52
2022-10-27T18:23:54.162Z,19.40
2022-10-27T18:26:40.073Z,18.80
2022-10-27T18:29:26.701Z,18.12
2022-10-27T18:32:12.932Z,17.22
2022-10-27T18:34:59.027Z,17.59
2022-10-27T18:37:44.974Z,17.65
2022-10-27T18:40:30.809Z,18.19
2022-10-27T18:43:16.769Z,17.44
2022-10-27T18:46:02.595Z,16.48
2022-10-27T18:48:48.536Z,17.15
2022-10-27T18:51:34.375Z,17.72
2022-10-27T18:54:20.185Z,16.84
2022-10-27T18:57:05.995Z,15.62
2022-10-27T18:59:51.800Z,15.34
2022-10-27T19:02:37.706Z,15.76
2022-10-27T19:05:24.058Z,16.45
2022-10-27T19:08:09.928Z,16.95
2022-10-27T19:10:57.992Z,17.63
2022-10-27T19:13:46.974Z,17.75
2022-10-27T19:16:32.839Z,17.81
2022-10-27T19:19:18.529Z,18.30
2022-10-27T19:22:04.395Z,18.63
2022-10-27T19:24:50.280Z,17.90
2022-10-27T19:27:36.203Z,16.48
2022-10-27T19:30:22.063Z,15.92
2022-10-27T19:33:07.800Z,15.55
2022-10-27T19:35:53.765Z,15.53
2022-10-27T19:38:39.613Z,15.47
2022-10-27T19:41:25.336Z,15.96
2022-10-27T19:44:11.244Z,15.32
2022-10-27T19:46:57.034Z,15.13
2022-10-27T19:49:42.899Z,15.49
2022-10-27T19:52:28.789Z,16.39
2022-10-27T19:55:14.804Z,17.06
2022-10-27T19:58:00.563Z,17.36
2022-10-27T20:00:46.408Z,17.82
2022-10-27T20:03:32.434Z,18.00
2022-10-27T20:06:18.301Z,18.40
2022-10-27T20:09:04.069Z,18.77
2022-10-27T20:11:49.971Z,19.05
2022-10-27T20:14:35.890Z,19.06
2022-10-27T20:17:21.781Z,19.32
2022-10-27T20:20:07.844Z,19.40
2022-10-27T20:22:53.650Z,19.57
2022-10-27T20:25:39.655Z,19.83
2022-10-27T20:28:25.621Z,19.71
2022-10-27T20:31:11.391Z,19.48
2022-10-27T20:33:57.153Z,19.58
2022-10-27T20:36:43.031Z,19.58
2022-10-27T20:39:28.976Z,19.42
2022-10-27T20:42:14.968Z,19.43
2022-10-27T20:45:00.751Z,19.54
2022-10-27T20:47:46.723Z,19.54
2022-10-27T20:50:32.617Z,19.81
2022-10-27T20:53:18.511Z,19.98
2022-10-27T20:56:04.401Z,20.28
2022-10-27T20:58:50.291Z,20.53
2022-10-27T21:01:36.257Z,20.33
2022-10-27T21:04:22.525Z,20.47
2022-10-27T21:07:08.546Z,20.59
2022-10-27T21:09:54.375Z,20.70
2022-10-27T21:12:40.272Z,20.80
2022-10-27T21:15:26.318Z,20.85
2022-10-27T21:18:12.212Z,20.89
2022-10-27T21:20:58.013Z,20.97
2022-10-27T21:23:43.894Z,21.03
2022-10-27T21:26:29.803Z,20.64
2022-10-27T21:29:15.628Z,20.71
2022-10-27T21:32:01.480Z,20.82
2022-10-27T21:34:47.317Z,20.41
2022-10-27T21:37:33.324Z,20.40
2022-10-27T21:40:21.721Z,20.58
2022-10-27T21:43:07.638Z,20.44
2022-10-27T21:45:53.696Z,20.36
2022-10-27T21:48:39.655Z,20.85
2022-10-27T21:51:25.454Z,20.56
2022-10-27T21:54:11.369Z,20.18
2022-10-27T21:56:57.467Z,20.01
2022-10-27T21:59:43.220Z,20.00
2022-10-27T22:02:29.133Z,20.01
2022-10-27T22:05:14.913Z,20.40
2022-10-27T22:08:00.843Z,20.28
2022-10-27T22:10:46.700Z,20.36
2022-10-27T22:13:32.524Z,20.64
2022-10-27T22:16:18.391Z,20.50
2022-10-27T22:19:04.112Z,20.32
2022-10-27T22:21:49.949Z,20.26
2022-10-27T22:24:35.758Z,20.11
2022-10-27T22:27:21.554Z,20.23
2022-10-27T22:30:07.528Z,20.73
2022-10-27T22:32:53.863Z,20.18
2022-10-27T22:35:39.836Z,20.26
2022-10-27T22:38:25.802Z,19.42
2022-10-27T22:41:13.740Z,18.72
2022-10-27T22:43:59.447Z,18.69
2022-10-27T22:46:45.313Z,19.43
2022-10-27T22:49:31.150Z,19.33
2022-10-27T22:52:17.215Z,19.63
2022-10-27T22:55:03.202Z,19.86
2022-10-27T22:57:49.093Z,19.83
2022-10-27T23:00:36.896Z,20.11
2022-10-27T23:03:22.813Z,20.10
2022-10-27T23:06:08.635Z,19.86
2022-10-27T23:08:54.517Z,19.93
2022-10-27T23:11:40.284Z,19.98
2022-10-27T23:14:26.069Z,20.20
2022-10-27T23:17:12.109Z,19.88
2022-10-27T23:19:57.929Z,18.95
2022-10-27T23:22:43.874Z,18.57
2022-10-27T23:25:31.819Z,18.61
2022-10-27T23:28:20.060Z,17.92
2022-10-27T23:31:05.792Z,17.30
2022-10-27T23:33:51.602Z,16.76
2022-10-27T23:36:37.359Z,16.01
2022-10-27T23:39:23.314Z,15.52
2022-10-27T23:42:11.102Z,15.30
2022-10-27T23:44:56.918Z,16.03
2022-10-27T23:47:42.827Z,16.59
2022-10-27T23:50:28.610Z,16.89
2022-10-27T23:53:14.517Z,16.77
2022-10-27T23:56:00.410Z,17.12
2022-10-27T23:58:46.277Z,17.47
